createdAt,value
2019-01-19T00:00:44.443Z,-5.31
2019-01-19T00:02:36.019Z,-5.24
2019-01-19T00:04:56.537Z,-5.22
2019-01-19T00:07:18.631Z,-5.16
2019-01-19T00:09:36.385Z,-5.19
2019-01-19T00:12:00.819Z,-5.23
2019-01-19T00:14:06.406Z,-5.20
2019-01-19T00:16:07.533Z,-5.28
2019-01-19T00:18:35.945Z,-5.29
2019-01-19T00:20:46.374Z,-5.32
2019-01-19T00:22:53.233Z,-5.35
2019-01-19T00:24:53.905Z,-5.33
2019-01-19T00:26:58.149Z,-5.38
2019-01-19T00:28:50.262Z,-5.35
2019-01-19T00:30:54.860Z,-5.32
2019-01-19T00:32:58.999Z,-5.33
2019-01-19T00:35:07.536Z,-5.36
2019-01-19T00:37:19.200Z,-5.38
2019-01-19T00:39:53.789Z,-5.40
2019-01-19T00:42:00.383Z,-5.41
2019-01-19T00:43:53.203Z,-5.47
2019-01-19T00:45:50.904Z,-5.47
2019-01-19T00:48:12.683Z,-5.45
2019-01-19T00:50:06.818Z,-5.42
2019-01-19T00:52:23.276Z,-5.43
2019-01-19T00:54:05.266Z,-5.46
2019-01-19T00:56:37.918Z,-5.45
2019-01-19T00:58:55.389Z,-5.41
2019-01-19T01:00:51.693Z,-5.44
2019-01-19T01:03:07.266Z,-5.29
2019-01-19T01:05:05.195Z,-5.31
2019-01-19T01:07:12.322Z,-5.29
2019-01-19T01:09:44.871Z,-5.27
2019-01-19T01:11:53.206Z,-5.21
2019-01-19T01:13:58.631Z,-5.19
2019-01-19T01:16:10.095Z,-5.24
2019-01-19T01:18:21.913Z,-5.19
2019-01-19T01:20:37.220Z,-5.21
2019-01-19T01:23:09.891Z,-5.13
2019-01-19T01:25:17.066Z,-5.15
2019-01-19T01:27:26.722Z,-5.09
2019-01-19T01:29:44.129Z,-5.17
2019-01-19T01:31:31.156Z,-5.23
2019-01-19T01:33:43.216Z,-5.29
2019-01-19T01:35:43.485Z,-5.35
2019-01-19T01:37:53.626Z,-5.36
2019-01-19T01:40:12.259Z,-5.26
2019-01-19T01:42:24.298Z,-5.20
2019-01-19T01:44:46.812Z,-5.13
2019-01-19T01:47:00.633Z,-5.09
2019-01-19T01:49:01.600Z,-5.14
2019-01-19T01:51:12.120Z,-5.19
2019-01-19T01:53:33.788Z,-5.19
2019-01-19T01:55:38.479Z,-5.17
2019-01-19T01:57:47.533Z,-5.25
2019-01-19T01:59:59.974Z,-5.25
2019-01-19T02:02:46.677Z,-5.20
2019-01-19T02:05:01.684Z,-5.16
2019-01-19T02:07:00.149Z,-5.12
2019-01-19T02:09:08.196Z,-5.13
2019-01-19T02:11:29.768Z,-5.22
2019-01-19T02:13:27.727Z,-5.31
2019-01-19T02:15:35.711Z,-5.38
2019-01-19T02:17:57.330Z,-5.44
2019-01-19T02:20:03.907Z,-5.39
2019-01-19T02:22:13.050Z,-5.45
2019-01-19T02:24:24.892Z,-5.49
2019-01-19T02:26:41.197Z,-5.55
2019-01-19T02:28:53.851Z,-5.57
2019-01-19T02:31:19.363Z,-5.62
2019-01-19T02:33:40.772Z,-5.66
2019-01-19T02:35:38.277Z,-5.73
2019-01-19T02:37:43.953Z,-5.74
2019-01-19T02:39:57.505Z,-5.79
2019-01-19T02:42:10.928Z,-5.82
2019-01-19T02:44:51.244Z,-5.84
2019-01-19T02:46:49.376Z,-5.84
2019-01-19T02:49:05.972Z,-5.88
2019-01-19T02:51:04.846Z,-5.87
2019-01-19T02:53:27.154Z,-5.85
2019-01-19T02:55:38.000Z,-5.83
2019-01-19T02:57:49.759Z,-5.88
2019-01-19T03:00:14.737Z,-5.86
2019-01-19T03:02:17.609Z,-5.90
2019-01-19T03:04:14.822Z,-5.92
2019-01-19T03:06:07.442Z,-5.88
2019-01-19T03:08:21.925Z,-5.90
2019-01-19T03:10:17.304Z,-5.95
2019-01-19T03:12:33.581Z,-5.90
2019-01-19T03:14:25.658Z,-5.85
2019-01-19T03:16:38.686Z,-5.82
2019-01-19T03:18:47.561Z,-5.85
2019-01-19T03:20:59.946Z,-5.87
2019-01-19T03:23:13.077Z,-5.87
2019-01-19T03:25:32.512Z,-5.85
2019-01-19T03:27:36.881Z,-5.81
2019-01-19T03:29:36.825Z,-5.84
2019-01-19T03:32:10.924Z,-5.85
2019-01-19T03:34:36.191Z,-5.89
2019-01-19T03:36:38.297Z,-5.85
2019-01-19T03:38:59.622Z,-5.84
2019-01-19T03:41:10.095Z,-5.77
2019-01-19T03:43:34.672Z,-5.84
2019-01-19T03:45:50.534Z,-5.78
2019-01-19T03:47:54.008Z,-5.77
2019-01-19T03:50:06.098Z,-5.82
2019-01-19T03:51:53.796Z,-5.79
2019-01-19T03:54:00.138Z,-5.66
2019-01-19T03:56:34.644Z,-5.59
2019-01-19T03:58:46.686Z,-5.56
2019-01-19T04:01:03.055Z,-5.49
2019-01-19T04:03:08.728Z,-5.42
2019-01-19T04:05:25.524Z,-5.43
2019-01-19T04:07:47.381Z,-5.42
2019-01-19T04:09:53.006Z,-5.34
2019-01-19T04:11:56.358Z,-5.33
2019-01-19T04:14:14.395Z,-5.38
2019-01-19T04:16:40.298Z,-5.39
2019-01-19T04:18:45.924Z,-5.35
2019-01-19T04:21:19.883Z,-5.40
2019-01-19T04:22:59.459Z,-5.48
2019-01-19T04:25:15.820Z,-5.52
2019-01-19T04:26:54.441Z,-5.46
2019-01-19T04:28:32.912Z,-5.50
2019-01-19T04:30:10.713Z,-5.51
2019-01-19T04:31:46.212Z,-5.53
2019-01-19T04:33:21.546Z,-5.57
2019-01-19T04:34:56.816Z,-5.52
2019-01-19T04:36:32.878Z,-5.51
2019-01-19T04:38:08.542Z,-5.50
2019-01-19T04:39:43.888Z,-5.50
2019-01-19T04:41:19.333Z,-5.44
2019-01-19T04:42:54.933Z,-5.51
2019-01-19T04:44:30.233Z,-5.51
2019-01-19T04:46:06.015Z,-5.51
2019-01-19T04:47:41.282Z,-5.58
2019-01-19T04:49:22.245Z,-5.61
2019-01-19T04:50:57.693Z,-5.65
2019-01-19T04:52:33.000Z,-5.63
2019-01-19T04:54:08.614Z,-5.67
2019-01-19T04:55:44.106Z,-5.64
2019-01-19T04:57:19.580Z,-5.65
2019-01-19T04:58:55.939Z,-5.73
2019-01-19T05:00:33.987Z,-5.69
2019-01-19T05:02:10.777Z,-5.65
2019-01-19T05:03:46.665Z,-5.60
2019-01-19T05:05:21.986Z,-5.60
2019-01-19T05:06:57.339Z,-5.56
2019-01-19T05:08:32.627Z,-5.62
2019-01-19T05:10:09.004Z,-5.66
2019-01-19T05:11:44.255Z,-5.65
2019-01-19T05:13:20.036Z,-5.67
2019-01-19T05:14:55.458Z,-5.70
2019-01-19T05:16:34.391Z,-5.68
2019-01-19T05:18:11.986Z,-5.71
2019-01-19T05:19:46.980Z,-5.65
2019-01-19T05:21:22.608Z,-5.65
2019-01-19T05:22:57.996Z,-5.60
2019-01-19T05:24:33.247Z,-5.60
2019-01-19T05:26:08.929Z,-5.57
2019-01-19T05:27:44.270Z,-5.57
2019-01-19T05:29:19.510Z,-5.54
2019-01-19T05:30:55.278Z,-5.48
2019-01-19T05:32:30.661Z,-5.53
2019-01-19T05:34:06.345Z,-5.54
2019-01-19T05:35:42.173Z,-5.55
2019-01-19T05:37:18.008Z,-5.60
2019-01-19T05:38:53.412Z,-5.62
2019-01-19T05:40:29.751Z,-5.61
2019-01-19T05:42:08.086Z,-5.56
2019-01-19T05:43:46.946Z,-5.54
2019-01-19T05:45:22.713Z,-5.58
2019-01-19T05:46:58.790Z,-5.60
2019-01-19T05:48:34.460Z,-5.57
2019-01-19T05:50:16.374Z,-5.59
2019-01-19T05:51:51.678Z,-5.60
2019-01-19T05:53:27.403Z,-5.62
2019-01-19T05:55:02.974Z,-5.61
2019-01-19T05:56:49.420Z,-5.64
2019-01-19T05:58:24.723Z,-5.71
2019-01-19T06:00:00.013Z,-5.71
2019-01-19T06:01:35.788Z,-5.78
2019-01-19T06:03:11.124Z,-5.81
2019-01-19T06:04:46.846Z,-5.77
2019-01-19T06:06:22.315Z,-5.84
2019-01-19T06:07:57.681Z,-5.84
2019-01-19T06:09:32.974Z,-5.88
2019-01-19T06:11:10.555Z,-5.86
2019-01-19T06:12:46.151Z,-5.90
2019-01-19T06:14:24.587Z,-5.92
2019-01-19T06:16:02.998Z,-5.92
2019-01-19T06:17:38.473Z,-5.92
2019-01-19T06:19:14.078Z,-5.96
2019-01-19T06:20:49.718Z,-5.95
2019-01-19T06:22:25.332Z,-5.98
2019-01-19T06:24:00.690Z,-6.01
2019-01-19T06:25:36.564Z,-6.06
2019-01-19T06:27:13.185Z,-6.00
2019-01-19T06:28:50.354Z,-5.94
2019-01-19T06:30:27.391Z,-5.92
2019-01-19T06:32:04.192Z,-5.92
2019-01-19T06:33:44.015Z,-5.96
2019-01-19T06:35:19.673Z,-6.01
2019-01-19T06:36:55.408Z,-5.96
2019-01-19T06:38:30.745Z,-6.01
2019-01-19T06:40:07.381Z,-6.04
2019-01-19T06:41:42.777Z,-6.01
2019-01-19T06:43:18.862Z,-5.97
2019-01-19T06:44:54.139Z,-5.93
2019-01-19T06:46:29.469Z,-5.96
2019-01-19T06:48:05.322Z,-5.97
2019-01-19T06:49:42.399Z,-5.95
2019-01-19T06:51:23.326Z,-5.96
2019-01-19T06:53:00.658Z,-5.95
2019-01-19T06:54:55.096Z,-6.04
2019-01-19T06:56:30.774Z,-5.98
2019-01-19T06:58:06.257Z,-6.08
2019-01-19T06:59:41.888Z,-6.04
2019-01-19T07:01:17.193Z,-6.07
2019-01-19T07:02:52.690Z,-6.05
2019-01-19T07:04:28.100Z,-6.03
2019-01-19T07:06:03.551Z,-5.99
2019-01-19T07:07:38.940Z,-6.00
2019-01-19T07:09:14.269Z,-5.99
2019-01-19T07:10:52.079Z,-6.04
2019-01-19T07:12:27.457Z,-6.01
2019-01-19T07:14:07.079Z,-5.92
2019-01-19T07:15:42.998Z,-5.89
2019-01-19T07:17:18.365Z,-5.90
2019-01-19T07:18:55.309Z,-5.94
2019-01-19T07:20:31.918Z,-5.94
2019-01-19T07:22:14.111Z,-5.96
2019-01-19T07:23:52.539Z,-5.97
2019-01-19T07:25:29.170Z,-5.95
2019-01-19T07:27:04.405Z,-5.90
2019-01-19T07:28:40.078Z,-5.95
2019-01-19T07:30:21.865Z,-5.97
2019-01-19T07:32:00.515Z,-6.02
2019-01-19T07:33:35.807Z,-5.88
2019-01-19T07:35:11.113Z,-5.85
2019-01-19T07:36:48.844Z,-5.82
2019-01-19T07:38:26.577Z,-5.82
2019-01-19T07:40:02.026Z,-5.80
2019-01-19T07:41:37.955Z,-5.77
2019-01-19T07:43:17.390Z,-5.79
2019-01-19T07:44:52.941Z,-5.77
2019-01-19T07:46:30.296Z,-5.66
2019-01-19T07:48:07.608Z,-5.58
2019-01-19T07:49:50.768Z,-5.55
2019-01-19T07:51:27.017Z,-5.58
2019-01-19T07:53:02.854Z,-5.61
2019-01-19T07:54:38.819Z,-5.51
2019-01-19T07:56:14.736Z,-5.50
2019-01-19T07:57:53.713Z,-5.49
2019-01-19T07:59:31.466Z,-5.41
2019-01-19T08:01:07.437Z,-5.38
2019-01-19T08:02:44.496Z,-5.37
2019-01-19T08:04:22.095Z,-5.29
2019-01-19T08:06:00.422Z,-5.28
2019-01-19T08:07:37.341Z,-5.26
2019-01-19T08:09:13.469Z,-5.20
2019-01-19T08:10:52.031Z,-5.12
2019-01-19T08:12:28.320Z,-5.10
2019-01-19T08:14:07.298Z,-5.03
2019-01-19T08:15:43.504Z,-4.91
2019-01-19T08:17:19.686Z,-4.87
2019-01-19T08:18:57.712Z,-4.81
2019-01-19T08:20:34.623Z,-4.74
2019-01-19T08:22:10.906Z,-4.72
2019-01-19T08:23:46.917Z,-4.62
2019-01-19T08:25:22.935Z,-4.59
2019-01-19T08:26:58.821Z,-4.50
2019-01-19T08:28:35.189Z,-4.43
2019-01-19T08:30:20.801Z,-4.43
2019-01-19T08:31:59.129Z,-4.36
2019-01-19T08:33:35.744Z,-4.32
2019-01-19T08:35:14.840Z,-4.27
2019-01-19T08:37:01.005Z,-4.23
2019-01-19T08:38:37.746Z,-4.17
2019-01-19T08:40:17.373Z,-4.17
2019-01-19T08:41:59.974Z,-4.09
2019-01-19T08:43:51.644Z,-4.07
2019-01-19T08:45:28.957Z,-4.00
2019-01-19T08:47:12.521Z,-3.95
2019-01-19T08:49:01.108Z,-3.95
2019-01-19T08:50:43.337Z,-3.88
2019-01-19T08:52:19.917Z,-3.86
2019-01-19T08:53:58.635Z,-3.73
2019-01-19T08:55:35.521Z,-3.75
2019-01-19T08:57:18.232Z,-3.73
2019-01-19T08:58:55.721Z,-3.68
2019-01-19T09:00:32.484Z,-3.58
2019-01-19T09:02:09.542Z,-3.63
2019-01-19T09:03:49.351Z,-3.64
2019-01-19T09:05:24.604Z,-3.61
2019-01-19T09:07:05.666Z,-3.61
2019-01-19T09:08:41.178Z,-3.57
2019-01-19T09:10:17.042Z,-3.48
2019-01-19T09:11:52.834Z,-3.47
2019-01-19T09:13:28.481Z,-3.41
2019-01-19T09:15:06.908Z,-3.36
2019-01-19T09:16:44.199Z,-3.34
2019-01-19T09:18:26.858Z,-3.36
2019-01-19T09:20:03.359Z,-3.34
2019-01-19T09:21:43.742Z,-3.29
2019-01-19T09:23:24.771Z,-3.20
2019-01-19T09:25:06.265Z,-3.25
2019-01-19T09:26:53.350Z,-3.19
2019-01-19T09:28:33.009Z,-3.17
2019-01-19T09:30:20.925Z,-3.16
2019-01-19T09:32:06.905Z,-3.07
2019-01-19T09:33:42.456Z,-2.95
2019-01-19T09:35:20.113Z,-2.86
2019-01-19T09:37:07.235Z,-2.85
2019-01-19T09:38:44.844Z,-2.77
2019-01-19T09:40:32.645Z,-2.85
2019-01-19T09:42:13.728Z,-2.80
2019-01-19T09:43:59.681Z,-2.79
2019-01-19T09:45:37.327Z,-2.80
2019-01-19T09:47:24.605Z,-2.74
2019-01-19T09:49:01.188Z,-2.68
2019-01-19T09:50:49.078Z,-2.68
2019-01-19T09:52:36.574Z,-2.63
2019-01-19T09:54:18.608Z,-2.63
2019-01-19T09:55:58.299Z,-2.50
2019-01-19T09:57:45.334Z,-2.59
2019-01-19T09:59:23.710Z,-2.61
2019-01-19T10:01:01.860Z,-2.57
2019-01-19T10:02:49.462Z,-2.45
2019-01-19T10:04:26.370Z,-2.39
2019-01-19T10:06:08.754Z,-2.37
2019-01-19T10:07:51.649Z,-2.37
2019-01-19T10:09:28.203Z,-2.38
2019-01-19T10:11:04.943Z,-2.36
2019-01-19T10:12:52.002Z,-2.35
2019-01-19T10:14:32.224Z,-2.25
2019-01-19T10:16:15.485Z,-2.28
2019-01-19T10:17:59.874Z,-2.21
2019-01-19T10:19:46.333Z,-2.17
2019-01-19T10:21:30.596Z,-2.17
2019-01-19T10:23:13.344Z,-2.11
2019-01-19T10:24:50.035Z,-2.09
2019-01-19T10:26:26.195Z,-1.97
2019-01-19T10:28:04.014Z,-2.04
2019-01-19T10:29:40.711Z,-2.05
2019-01-19T10:31:18.973Z,-2.03
2019-01-19T10:32:57.270Z,-2.03
2019-01-19T10:34:38.736Z,-2.02
2019-01-19T10:36:21.873Z,-1.88
2019-01-19T10:38:03.624Z,-1.97
2019-01-19T10:39:40.059Z,-1.84
2019-01-19T10:41:19.939Z,-1.85
2019-01-19T10:43:07.818Z,-1.78
2019-01-19T10:44:49.205Z,-1.87
2019-01-19T10:46:34.129Z,-1.85
2019-01-19T10:48:28.658Z,-1.85
2019-01-19T10:50:15.348Z,-1.82
2019-01-19T10:52:01.017Z,-1.87
2019-01-19T10:53:37.467Z,-1.82
2019-01-19T10:55:14.605Z,-1.75
2019-01-19T10:56:50.803Z,-1.76
2019-01-19T10:58:30.566Z,-1.77
2019-01-19T11:00:21.303Z,-1.71
2019-01-19T11:01:57.621Z,-1.69
2019-01-19T11:03:39.084Z,-1.64
2019-01-19T11:05:15.970Z,-1.70
2019-01-19T11:06:53.400Z,-1.68
2019-01-19T11:08:38.255Z,-1.66
2019-01-19T11:10:25.825Z,-1.63
2019-01-19T11:12:11.222Z,-1.69
2019-01-19T11:13:51.733Z,-1.69
2019-01-19T11:15:27.988Z,-1.69
2019-01-19T11:17:11.446Z,-1.63
2019-01-19T11:18:45.284Z,-1.66
2019-01-19T11:20:30.922Z,-1.54
2019-01-19T11:22:12.697Z,-1.57
2019-01-19T11:23:50.955Z,-1.46
2019-01-19T11:25:26.829Z,-1.49
2019-01-19T11:27:04.174Z,-1.46
2019-01-19T11:28:42.570Z,-1.56
2019-01-19T11:30:28.200Z,-1.49
2019-01-19T11:32:13.610Z,-1.38
2019-01-19T11:33:53.483Z,-1.41
2019-01-19T11:35:35.291Z,-1.36
2019-01-19T11:37:11.032Z,-1.26
2019-01-19T11:38:50.192Z,-1.19
2019-01-19T11:40:46.743Z,-1.16
2019-01-19T11:42:23.354Z,-1.00
2019-01-19T11:44:00.500Z,-0.96
2019-01-19T11:45:43.988Z,-0.94
2019-01-19T11:47:22.572Z,-0.93
2019-01-19T11:49:01.195Z,-1.02
2019-01-19T11:50:37.020Z,-0.93
2019-01-19T11:52:15.206Z,-0.89
2019-01-19T11:53:53.537Z,-0.83
2019-01-19T11:55:36.037Z,-0.81
2019-01-19T11:57:17.523Z,-0.77
2019-01-19T11:58:59.678Z,-0.68
2019-01-19T12:00:37.889Z,-0.70
2019-01-19T12:02:15.029Z,-0.72
2019-01-19T12:03:52.345Z,-0.57
2019-01-19T12:05:43.247Z,-0.56
2019-01-19T12:07:24.610Z,-0.58
2019-01-19T12:09:00.885Z,-0.43
2019-01-19T12:10:43.824Z,-0.36
2019-01-19T12:12:23.192Z,-0.34
2019-01-19T12:14:00.602Z,-0.20
2019-01-19T12:15:40.530Z,-0.13
2019-01-19T12:17:23.895Z,-0.02
2019-01-19T12:19:18.225Z,0.14
2019-01-19T12:21:00.088Z,0.29
2019-01-19T12:22:38.552Z,0.41
2019-01-19T12:24:27.313Z,0.52
2019-01-19T12:26:09.391Z,0.39
2019-01-19T12:27:44.935Z,0.41
2019-01-19T12:29:28.986Z,0.44
2019-01-19T12:31:10.668Z,0.43
2019-01-19T12:32:49.360Z,0.54
2019-01-19T12:34:25.341Z,0.39
2019-01-19T12:36:03.718Z,0.48
2019-01-19T12:37:39.848Z,0.58
2019-01-19T12:39:27.975Z,0.53
2019-01-19T12:41:06.865Z,0.47
2019-01-19T12:42:47.382Z,0.45
2019-01-19T12:44:25.348Z,0.29
2019-01-19T12:46:04.803Z,0.29
2019-01-19T12:47:48.282Z,0.33
2019-01-19T12:49:27.655Z,0.20
2019-01-19T12:51:10.268Z,0.28
2019-01-19T12:52:50.819Z,0.11
2019-01-19T12:54:29.653Z,-0.02
2019-01-19T12:56:09.226Z,0.00
2019-01-19T12:57:47.490Z,-0.04
2019-01-19T12:59:33.494Z,-0.16
2019-01-19T13:01:17.304Z,-0.24
2019-01-19T13:02:55.570Z,-0.14
2019-01-19T13:04:32.595Z,-0.13
2019-01-19T13:06:41.106Z,-0.13
2019-01-19T13:08:25.120Z,-0.25
2019-01-19T13:10:22.183Z,-0.34
2019-01-19T13:12:42.975Z,-0.27
2019-01-19T13:14:31.871Z,-0.25
2019-01-19T13:17:00.634Z,-0.35
2019-01-19T13:19:04.334Z,-0.38
2019-01-19T13:21:25.630Z,-0.46
2019-01-19T13:23:47.644Z,-0.42
2019-01-19T13:28:06.132Z,-0.32
2019-01-19T13:30:55.028Z,-0.34
2019-01-19T13:33:17.522Z,-0.46
2019-01-19T13:35:44.802Z,-0.51
2019-01-19T13:38:03.248Z,-0.58
2019-01-19T13:40:43.655Z,-0.61
2019-01-19T13:43:15.920Z,-0.65
2019-01-19T13:45:30.161Z,-0.68
2019-01-19T13:47:35.016Z,-0.63
2019-01-19T13:49:50.353Z,-0.70
2019-01-19T13:51:49.574Z,-0.73
2019-01-19T13:54:03.505Z,-0.71
2019-01-19T13:56:19.771Z,-0.76
2019-01-19T13:58:09.328Z,-0.76
2019-01-19T14:00:26.002Z,-0.75
2019-01-19T14:02:38.016Z,-0.73
2019-01-19T14:05:26.576Z,-0.77
2019-01-19T14:07:50.963Z,-0.74
2019-01-19T14:10:12.448Z,-0.83
2019-01-19T14:12:25.544Z,-0.93
2019-01-19T14:14:31.350Z,-0.92
2019-01-19T14:16:43.745Z,-0.98
2019-01-19T14:18:41.805Z,-0.94
2019-01-19T14:20:57.193Z,-0.94
2019-01-19T14:23:22.416Z,-0.97
2019-01-19T14:25:45.216Z,-1.03
2019-01-19T14:28:02.200Z,-1.07
2019-01-19T14:30:48.147Z,-1.10
2019-01-19T14:33:36.051Z,-1.11
2019-01-19T14:35:55.387Z,-1.15
2019-01-19T14:38:13.456Z,-1.14
2019-01-19T14:40:36.056Z,-1.15
2019-01-19T14:43:03.415Z,-1.20
2019-01-19T14:45:27.219Z,-1.20
2019-01-19T14:47:34.086Z,-1.21
2019-01-19T14:50:08.150Z,-1.22
2019-01-19T14:51:56.288Z,-1.20
2019-01-19T14:54:18.517Z,-1.24
2019-01-19T14:56:37.365Z,-1.20
2019-01-19T14:59:04.798Z,-1.23
2019-01-19T15:01:26.404Z,-1.27
2019-01-19T15:03:39.090Z,-1.27
2019-01-19T15:05:43.339Z,-1.25
2019-01-19T15:08:04.391Z,-1.28
2019-01-19T15:10:06.389Z,-1.28
2019-01-19T15:12:24.489Z,-1.31
2019-01-19T15:14:38.668Z,-1.36
2019-01-19T15:16:56.326Z,-1.36
2019-01-19T15:19:07.908Z,-1.40
2019-01-19T15:21:14.066Z,-1.50
2019-01-19T15:23:35.178Z,-1.53
2019-01-19T15:25:56.159Z,-1.59
2019-01-19T15:28:07.425Z,-1.63
2019-01-19T15:30:33.095Z,-1.67
2019-01-19T15:32:55.514Z,-1.71
2019-01-19T15:35:03.733Z,-1.78
2019-01-19T15:37:24.713Z,-1.90
2019-01-19T15:39:37.880Z,-1.91
2019-01-19T15:42:05.376Z,-2.00
2019-01-19T15:44:05.843Z,-2.06
2019-01-19T15:46:27.812Z,-2.13
2019-01-19T15:48:42.688Z,-2.25
2019-01-19T15:50:58.062Z,-2.26
2019-01-19T15:52:42.239Z,-2.21
2019-01-19T15:54:55.552Z,-2.35
2019-01-19T15:57:13.837Z,-2.40
2019-01-19T15:59:40.340Z,-2.53
2019-01-19T16:01:44.590Z,-2.54
2019-01-19T16:03:56.226Z,-2.68
2019-01-19T16:06:24.113Z,-2.68
2019-01-19T16:08:21.304Z,-2.66
2019-01-19T16:10:53.091Z,-2.72
2019-01-19T16:12:48.681Z,-2.71
2019-01-19T16:15:05.914Z,-2.83
2019-01-19T16:17:11.095Z,-2.85
2019-01-19T16:19:21.754Z,-3.02
2019-01-19T16:21:38.396Z,-3.05
2019-01-19T16:23:42.222Z,-3.15
2019-01-19T16:25:53.947Z,-3.24
2019-01-19T16:28:00.823Z,-3.23
2019-01-19T16:30:22.891Z,-3.27
2019-01-19T16:32:28.453Z,-3.31
2019-01-19T16:34:44.113Z,-3.37
2019-01-19T16:37:02.370Z,-3.42
2019-01-19T16:39:13.235Z,-3.43
2019-01-19T16:41:29.033Z,-3.39
2019-01-19T16:43:37.982Z,-3.44
2019-01-19T16:46:16.980Z,-3.38
2019-01-19T16:48:25.759Z,-3.36
2019-01-19T16:50:57.182Z,-3.44
2019-01-19T16:53:18.696Z,-3.49
2019-01-19T16:55:50.249Z,-3.46
2019-01-19T16:58:07.087Z,-3.43
2019-01-19T17:00:08.689Z,-3.51
2019-01-19T17:02:15.134Z,-3.65
2019-01-19T17:04:27.025Z,-3.71
2019-01-19T17:06:42.035Z,-3.80
2019-01-19T17:08:42.287Z,-3.76
2019-01-19T17:10:43.400Z,-3.80
2019-01-19T17:12:49.294Z,-3.83
2019-01-19T17:15:00.608Z,-3.88
2019-01-19T17:17:09.887Z,-3.82
2019-01-19T17:19:20.865Z,-3.85
2019-01-19T17:21:48.395Z,-3.91
2019-01-19T17:24:08.975Z,-3.98
2019-01-19T17:26:27.929Z,-3.99
2019-01-19T17:29:05.029Z,-4.06
2019-01-19T17:31:12.666Z,-4.07
2019-01-19T17:33:19.815Z,-4.13
2019-01-19T17:35:28.981Z,-4.14
2019-01-19T17:37:51.334Z,-4.14
2019-01-19T17:39:55.252Z,-4.15
2019-01-19T17:42:03.664Z,-4.15
2019-01-19T17:44:21.322Z,-4.17
2019-01-19T17:47:03.139Z,-4.22
2019-01-19T17:49:01.965Z,-4.19
2019-01-19T17:51:18.652Z,-4.19
2019-01-19T17:53:35.225Z,-4.16
2019-01-19T17:55:57.318Z,-4.24
2019-01-19T17:58:24.152Z,-4.32
2019-01-19T18:00:27.340Z,-4.28
2019-01-19T18:03:06.304Z,-4.36
2019-01-19T18:05:15.783Z,-4.35
2019-01-19T18:07:51.222Z,-4.26
2019-01-19T18:09:54.905Z,-4.28
2019-01-19T18:11:46.274Z,-4.24
2019-01-19T18:14:02.021Z,-4.25
2019-01-19T18:16:12.006Z,-4.20
2019-01-19T18:18:18.430Z,-4.26
2019-01-19T18:20:44.293Z,-4.26
2019-01-19T18:23:17.192Z,-4.27
2019-01-19T18:25:39.420Z,-4.35
2019-01-19T18:28:09.194Z,-4.37
2019-01-19T18:30:34.858Z,-4.39
2019-01-19T18:32:56.228Z,-4.49
2019-01-19T18:35:09.946Z,-4.54
2019-01-19T18:37:20.021Z,-4.60
2019-01-19T18:39:42.160Z,-4.62
2019-01-19T18:41:57.088Z,-4.62
2019-01-19T18:44:18.474Z,-4.70
2019-01-19T18:46:20.946Z,-4.66
2019-01-19T18:48:33.540Z,-4.59
2019-01-19T18:50:51.189Z,-4.54
2019-01-19T18:52:55.953Z,-4.57
2019-01-19T18:55:19.089Z,-4.57
2019-01-19T18:57:43.079Z,-4.63
2019-01-19T19:05:09.924Z,-4.73
2019-01-19T19:07:35.924Z,-4.76
2019-01-19T19:09:38.519Z,-4.79
2019-01-19T19:12:07.507Z,-4.76
2019-01-19T19:14:06.572Z,-4.81
2019-01-19T19:16:19.140Z,-4.86
2019-01-19T19:18:40.658Z,-4.95
2019-01-19T19:20:43.024Z,-4.98
2019-01-19T19:23:11.280Z,-5.05
2019-01-19T19:25:14.355Z,-5.04
2019-01-19T19:27:35.526Z,-5.09
2019-01-19T19:30:00.996Z,-5.09
2019-01-19T19:32:23.032Z,-5.11
2019-01-19T19:34:18.910Z,-5.14
2019-01-19T19:36:37.059Z,-5.21
2019-01-19T19:40:58.488Z,-5.31
2019-01-19T19:43:37.288Z,-5.28
2019-01-19T19:45:27.530Z,-5.33
2019-01-19T19:47:55.517Z,-5.46
2019-01-19T19:50:12.725Z,-5.48
2019-01-19T19:52:17.042Z,-5.58
2019-01-19T19:53:55.538Z,-5.65
2019-01-19T19:55:29.281Z,-5.63
2019-01-19T19:57:08.362Z,-5.63
2019-01-19T19:58:47.614Z,-5.59
2019-01-19T20:00:28.387Z,-5.58
2019-01-19T20:02:09.329Z,-5.58
2019-01-19T20:03:51.258Z,-5.64
2019-01-19T20:05:37.253Z,-5.73
2019-01-19T20:07:33.523Z,-5.68
2019-01-19T20:09:18.325Z,-5.79
2019-01-19T20:11:00.171Z,-5.81
2019-01-19T20:12:58.728Z,-5.83
2019-01-19T20:14:46.281Z,-5.89
2019-01-19T20:16:32.354Z,-5.86
2019-01-19T20:18:43.371Z,-5.78
2019-01-19T20:20:23.327Z,-5.74
2019-01-19T20:22:12.958Z,-5.80
2019-01-19T20:23:49.800Z,-5.74
2019-01-19T20:25:34.056Z,-5.78
2019-01-19T20:27:16.110Z,-5.76
2019-01-19T20:29:03.105Z,-5.80
2019-01-19T20:30:35.989Z,-5.83
2019-01-19T20:32:25.264Z,-5.89
2019-01-19T20:34:04.550Z,-5.84
2019-01-19T20:35:46.047Z,-5.91
2019-01-19T20:37:27.328Z,-5.89
2019-01-19T20:39:05.217Z,-5.94
2019-01-19T20:40:58.541Z,-5.97
2019-01-19T20:42:55.417Z,-5.94
2019-01-19T20:44:39.298Z,-5.95
2019-01-19T20:46:22.679Z,-5.93
2019-01-19T20:48:18.095Z,-5.96
2019-01-19T20:50:15.222Z,-5.88
2019-01-19T20:52:15.753Z,-5.96
2019-01-19T20:54:03.175Z,-5.95
2019-01-19T20:55:43.435Z,-5.93
2019-01-19T20:57:30.400Z,-5.93
2019-01-19T20:59:16.100Z,-5.94
2019-01-19T21:01:00.198Z,-6.06
2019-01-19T21:02:38.705Z,-6.08
2019-01-19T21:04:23.531Z,-6.13
2019-01-19T21:06:06.428Z,-6.11
2019-01-19T21:07:42.330Z,-6.20
2019-01-19T21:09:24.706Z,-6.33
2019-01-19T21:11:12.218Z,-6.39
2019-01-19T21:12:48.271Z,-6.36
2019-01-19T21:14:25.858Z,-6.41
2019-01-19T21:16:06.056Z,-6.44
2019-01-19T21:17:44.605Z,-6.48
2019-01-19T21:19:30.154Z,-6.48
2019-01-19T21:21:01.636Z,-6.49
2019-01-19T21:22:41.365Z,-6.55
2019-01-19T21:24:16.906Z,-6.45
2019-01-19T21:25:53.546Z,-6.55
2019-01-19T21:27:29.127Z,-6.65
2019-01-19T21:29:17.655Z,-6.67
2019-01-19T21:30:53.354Z,-6.60
2019-01-19T21:32:36.425Z,-6.67
2019-01-19T21:34:19.286Z,-6.60
2019-01-19T21:36:00.802Z,-6.62
2019-01-19T21:37:44.226Z,-6.57
2019-01-19T21:39:22.962Z,-6.66
2019-01-19T21:40:59.233Z,-6.65
2019-01-19T21:42:44.493Z,-6.63
2019-01-19T21:44:22.528Z,-6.71
2019-01-19T21:46:00.799Z,-6.74
2019-01-19T21:47:36.655Z,-6.81
2019-01-19T21:49:13.534Z,-6.76
2019-01-19T21:50:51.006Z,-6.74
2019-01-19T21:52:26.746Z,-6.74
2019-01-19T21:54:11.491Z,-6.74
2019-01-19T21:55:47.057Z,-6.76
2019-01-19T21:57:31.785Z,-6.80
2019-01-19T21:59:07.211Z,-6.85
2019-01-19T22:00:43.156Z,-6.86
2019-01-19T22:02:20.261Z,-6.93
2019-01-19T22:04:02.934Z,-6.98
2019-01-19T22:05:40.896Z,-6.94
2019-01-19T22:07:17.747Z,-6.98
2019-01-19T22:08:53.434Z,-6.96
2019-01-19T22:10:29.476Z,-6.94
2019-01-19T22:12:05.050Z,-7.00
2019-01-19T22:13:49.649Z,-7.01
2019-01-19T22:15:25.088Z,-6.91
2019-01-19T22:17:04.120Z,-6.99
2019-01-19T22:18:41.693Z,-6.98
2019-01-19T22:20:25.780Z,-7.01
2019-01-19T22:22:06.715Z,-7.03
2019-01-19T22:23:42.527Z,-7.09
2019-01-19T22:25:22.377Z,-6.97
2019-01-19T22:26:58.768Z,-7.03
2019-01-19T22:28:37.057Z,-7.05
2019-01-19T22:30:25.158Z,-7.11
2019-01-19T22:32:07.102Z,-7.13
2019-01-19T22:33:47.770Z,-7.07
2019-01-19T22:35:29.424Z,-7.12
2019-01-19T22:37:09.280Z,-7.10
2019-01-19T22:39:32.915Z,-7.06
2019-01-19T22:41:18.982Z,-7.07
2019-01-19T22:42:59.507Z,-7.05
2019-01-19T22:44:35.793Z,-7.09
2019-01-19T22:46:12.867Z,-7.14
2019-01-19T22:47:50.249Z,-7.23
2019-01-19T22:49:33.151Z,-7.18
2019-01-19T22:51:11.188Z,-7.23
2019-01-19T22:52:43.710Z,-7.24
2019-01-19T22:54:19.512Z,-7.30
2019-01-19T22:55:54.908Z,-7.29
2019-01-19T22:57:30.856Z,-7.28
2019-01-19T22:59:06.505Z,-7.22
2019-01-19T23:01:15.320Z,-7.14
2019-01-19T23:02:50.740Z,-7.16
2019-01-19T23:04:28.489Z,-7.07
2019-01-19T23:06:07.737Z,-7.06
2019-01-19T23:07:46.353Z,-7.00
2019-01-19T23:09:22.612Z,-7.04
2019-01-19T23:11:01.278Z,-6.99
2019-01-19T23:12:41.126Z,-7.00
2019-01-19T23:14:19.807Z,-7.00
2019-01-19T23:16:00.299Z,-6.96
2019-01-19T23:17:36.003Z,-6.92
2019-01-19T23:19:13.227Z,-6.92
2019-01-19T23:20:50.302Z,-6.92
2019-01-19T23:22:29.244Z,-6.92
2019-01-19T23:24:07.281Z,-6.90
2019-01-19T23:25:43.143Z,-6.93
2019-01-19T23:27:21.224Z,-6.96
2019-01-19T23:28:58.091Z,-6.92
2019-01-19T23:30:37.606Z,-6.90
2019-01-19T23:32:13.139Z,-6.94
2019-01-19T23:33:48.532Z,-6.94
2019-01-19T23:35:23.959Z,-6.92
2019-01-19T23:37:00.221Z,-6.89
2019-01-19T23:38:39.329Z,-6.93
2019-01-19T23:40:15.077Z,-6.85
2019-01-19T23:41:50.678Z,-6.82
2019-01-19T23:43:26.807Z,-6.78
2019-01-19T23:45:07.003Z,-6.80
2019-01-19T23:46:48.054Z,-6.80
2019-01-19T23:48:24.994Z,-6.85
2019-01-19T23:50:00.681Z,-6.87
2019-01-19T23:51:39.280Z,-6.81
2019-01-19T23:53:19.062Z,-6.80
2019-01-19T23:54:54.821Z,-6.78
2019-01-19T23:56:35.540Z,-6.83
2019-01-19T23:58:12.025Z,-6.92
2019-01-19T23:59:48.490Z,-6.99
